Time;durP1;ratioP1;P1;durP2;ratioP2;P2;SDS_P1;SDS_P2;PMS_P1;PMS_P2;Temp;Humidity;BMP_temperature;BMP_pressure;BME280_temperature;BME280_humidity;BME280_pressure;Samples;Min_cycle;Max_cycle;Signal;HPM_P1;HPM_P2
2022/03/03 00:01:39;;;;;;;26.60;23.88;;;-0.20;18.70;;;;;;4976967;28;20285;-71
2022/03/03 00:04:06;;;;;;;24.48;21.60;;;-0.30;18.80;;;;;;4976167;28;20177;-71
2022/03/03 00:06:32;;;;;;;26.40;23.67;;;-0.40;19.40;;;;;;4975356;28;20234;-71
2022/03/03 00:08:57;;;;;;;24.87;22.40;;;-0.50;19.70;;;;;;4991461;28;20221;-70
2022/03/03 00:11:23;;;;;;;24.37;22.07;;;-0.60;20.00;;;;;;4976022;28;20683;-70
2022/03/03 00:13:49;;;;;;;26.13;23.37;;;-0.60;20.60;;;;;;4975542;28;20185;-71
2022/03/03 00:16:15;;;;;;;25.23;22.58;;;-0.60;20.70;;;;;;4975358;28;20235;-70
2022/03/03 00:18:41;;;;;;;25.90;23.40;;;-0.60;20.70;;;;;;4975163;28;20177;-70
2022/03/03 00:21:06;;;;;;;25.70;22.83;;;-0.70;21.60;;;;;;4975489;28;20409;-70
2022/03/03 00:23:32;;;;;;;25.67;22.97;;;-0.90;21.70;;;;;;4975992;28;20301;-70
2022/03/03 00:25:58;;;;;;;28.53;22.60;;;-0.90;21.70;;;;;;4975341;28;20201;-70
2022/03/03 00:28:24;;;;;;;23.45;21.10;;;-0.80;21.60;;;;;;4975395;28;20600;-70
2022/03/03 00:30:50;;;;;;;25.20;22.67;;;-0.80;21.10;;;;;;4976134;28;20212;-69
2022/03/03 00:33:15;;;;;;;24.20;21.80;;;-0.80;21.60;;;;;;4975251;28;20460;-69
2022/03/03 00:35:41;;;;;;;22.50;20.20;;;-0.80;21.50;;;;;;4990347;28;20190;-70
2022/03/03 00:38:08;;;;;;;24.40;21.67;;;-0.80;21.60;;;;;;4975170;28;20181;-70
2022/03/03 00:40:34;;;;;;;25.52;22.20;;;-0.70;21.50;;;;;;4975779;28;20189;-70
2022/03/03 00:42:59;;;;;;;22.50;20.23;;;-0.70;21.30;;;;;;4975533;28;20234;-69
2022/03/03 00:45:25;;;;;;;23.93;21.27;;;-0.80;21.70;;;;;;4975508;28;20620;-70
2022/03/03 00:47:50;;;;;;;26.37;22.70;;;-0.80;21.70;;;;;;4974167;28;20554;-70
2022/03/03 00:50:16;;;;;;;23.20;21.00;;;-0.80;21.50;;;;;;4974913;28;20217;-70
2022/03/03 00:52:41;;;;;;;24.17;21.63;;;-0.90;21.80;;;;;;4989603;28;20199;-69
2022/03/03 00:55:08;;;;;;;24.30;20.80;;;-1.00;22.40;;;;;;4975323;28;20316;-72
2022/03/03 00:57:34;;;;;;;25.13;21.20;;;-1.00;22.20;;;;;;4953291;28;20272;-69
2022/03/03 01:00:00;;;;;;;24.98;21.38;;;-1.00;21.90;;;;;;4954401;29;20277;-70
2022/03/03 01:02:26;;;;;;;22.73;20.45;;;-0.90;21.80;;;;;;4955578;28;20205;-70
2022/03/03 01:04:51;;;;;;;35.17;23.13;;;-0.90;21.60;;;;;;4955567;28;20206;-70
2022/03/03 01:07:17;;;;;;;24.60;22.00;;;-0.90;22.00;;;;;;4955428;28;20233;-69
2022/03/03 01:09:43;;;;;;;24.53;21.67;;;-0.90;21.90;;;;;;4955420;28;20185;-70
2022/03/03 01:12:09;;;;;;;23.83;21.60;;;-1.00;22.30;;;;;;4955690;28;20202;-69
2022/03/03 01:14:34;;;;;;;22.03;20.03;;;-1.00;22.40;;;;;;4955614;28;20173;-69
2022/03/03 01:17:00;;;;;;;31.57;22.73;;;-0.90;22.40;;;;;;4955218;28;20446;-70
2022/03/03 01:19:26;;;;;;;23.80;21.33;;;-0.90;22.60;;;;;;4955475;28;20673;-70
2022/03/03 01:21:51;;;;;;;25.37;22.43;;;-0.90;22.30;;;;;;4957917;28;20208;-71
2022/03/03 01:24:17;;;;;;;25.60;22.03;;;-0.80;21.70;;;;;;4974922;28;20590;-69
2022/03/03 01:26:43;;;;;;;22.37;20.17;;;-0.90;21.80;;;;;;4973911;28;20205;-68
2022/03/03 01:29:09;;;;;;;26.85;22.23;;;-0.90;21.90;;;;;;4972712;28;20268;-68
2022/03/03 01:31:35;;;;;;;23.63;21.20;;;-0.90;21.70;;;;;;4974076;28;20292;-69
2022/03/03 01:34:00;;;;;;;24.13;21.00;;;-0.80;21.40;;;;;;4973995;28;20486;-69
2022/03/03 01:36:26;;;;;;;24.50;21.90;;;-1.00;21.70;;;;;;4973973;28;20189;-69
2022/03/03 01:38:52;;;;;;;22.07;19.77;;;-1.10;22.30;;;;;;4975206;28;20220;-72
2022/03/03 01:41:17;;;;;;;24.10;20.50;;;-1.10;22.30;;;;;;4974778;28;20183;-69
2022/03/03 01:43:43;;;;;;;21.80;19.57;;;-1.00;21.90;;;;;;4974932;28;20186;-69
2022/03/03 01:46:08;;;;;;;27.30;21.90;;;-1.00;21.90;;;;;;4973234;28;20209;-70
2022/03/03 01:48:34;;;;;;;24.50;21.90;;;-1.00;21.80;;;;;;4975664;28;20182;-70
2022/03/03 01:51:00;;;;;;;22.87;20.47;;;-1.00;21.70;;;;;;4974317;28;20177;-70
2022/03/03 01:53:25;;;;;;;22.93;20.93;;;-1.00;21.80;;;;;;4974538;28;20722;-70
2022/03/03 01:55:52;;;;;;;21.07;18.87;;;-1.10;21.90;;;;;;4974974;28;20173;-70
2022/03/03 01:58:18;;;;;;;23.25;20.75;;;-1.10;22.30;;;;;;4973684;28;20264;-70
2022/03/03 02:00:49;;;;;;;23.00;20.80;;;-1.10;22.10;;;;;;4974234;28;20219;-70
2022/03/03 02:03:15;;;;;;;25.27;21.35;;;-1.10;22.20;;;;;;4974049;28;20589;-70
2022/03/03 02:05:41;;;;;;;22.53;20.13;;;-1.20;22.10;;;;;;4973112;28;20220;-71
2022/03/03 02:08:06;;;;;;;24.77;22.03;;;-1.20;22.50;;;;;;4973857;28;20212;-70
2022/03/03 02:10:32;;;;;;;27.53;20.07;;;-1.40;22.80;;;;;;4973853;28;20173;-70
2022/03/03 02:12:58;;;;;;;22.52;20.42;;;-1.40;23.10;;;;;;4974566;28;20295;-70
2022/03/03 02:15:24;;;;;;;24.83;21.83;;;-1.30;23.00;;;;;;4974437;28;20213;-70
2022/03/03 02:17:50;;;;;;;24.23;21.70;;;-1.20;23.00;;;;;;4974282;28;20251;-71
2022/03/03 02:20:22;;;;;;;22.83;20.40;;;-1.10;22.40;;;;;;4972910;28;20181;-70
2022/03/03 02:22:49;;;;;;;22.85;20.50;;;-1.20;22.40;;;;;;4973329;28;20204;-70
2022/03/03 02:25:16;;;;;;;22.63;20.38;;;-1.20;22.30;;;;;;4974266;28;20690;-69
2022/03/03 02:27:43;;;;;;;25.08;20.70;;;-1.20;22.20;;;;;;4973036;28;20173;-69
2022/03/03 02:30:09;;;;;;;22.98;20.60;;;-1.20;22.10;;;;;;4973458;28;20181;-69
2022/03/03 02:32:35;;;;;;;24.20;21.75;;;-1.20;22.20;;;;;;4972905;28;20646;-69
2022/03/03 02:35:00;;;;;;;26.23;22.43;;;-1.20;22.30;;;;;;4973893;28;20284;-70
2022/03/03 02:37:34;;;;;;;27.93;21.90;;;-1.30;22.20;;;;;;4973465;28;20240;-70
2022/03/03 02:40:00;;;;;;;21.17;18.88;;;-1.30;22.20;;;;;;4963515;28;20186;-68
2022/03/03 02:42:26;;;;;;;22.45;20.30;;;-1.40;22.30;;;;;;4942967;28;20200;-68
2022/03/03 02:44:51;;;;;;;22.40;20.00;;;-1.30;22.10;;;;;;4947039;28;20205;-70
2022/03/03 02:47:17;;;;;;;23.80;21.30;;;-1.40;22.10;;;;;;4947195;28;20308;-67
2022/03/03 02:49:43;;;;;;;23.27;20.93;;;-1.50;22.40;;;;;;4945490;28;20256;-69
2022/03/03 02:52:08;;;;;;;22.93;20.63;;;-1.50;22.60;;;;;;4944442;28;20201;-67
2022/03/03 02:54:34;;;;;;;28.20;21.53;;;-1.50;22.30;;;;;;4944347;28;21057;-69
2022/03/03 02:59:44;;;;;;;23.15;20.67;;;-1.90;23.90;;;;;;4950656;28;20277;-70
2022/03/03 03:02:09;;;;;;;21.57;19.10;;;-2.00;24.90;;;;;;4965413;28;20236;-69
2022/03/03 03:04:35;;;;;;;22.53;20.40;;;-1.90;24.70;;;;;;4962614;28;20209;-68
2022/03/03 03:07:00;;;;;;;25.70;19.70;;;-1.80;24.00;;;;;;4945858;28;20317;-69
2022/03/03 03:09:26;;;;;;;24.53;22.00;;;-1.70;24.10;;;;;;4943408;28;20236;-71
2022/03/03 03:11:51;;;;;;;20.93;18.63;;;-1.60;24.10;;;;;;4943855;28;20304;-69
2022/03/03 03:14:17;;;;;;;21.93;19.33;;;-1.70;24.10;;;;;;4946714;28;20197;-70
2022/03/03 03:16:42;;;;;;;23.43;20.20;;;-1.60;24.10;;;;;;4961616;28;20197;-69
2022/03/03 03:19:09;;;;;;;23.87;21.37;;;-1.70;24.10;;;;;;4954424;28;20201;-71
2022/03/03 03:21:34;;;;;;;26.15;21.20;;;-1.70;24.10;;;;;;4956961;28;20572;-71
2022/03/03 03:24:00;;;;;;;22.60;20.20;;;-1.60;24.10;;;;;;4957068;28;20186;-70
2022/03/03 03:26:25;;;;;;;26.87;21.00;;;-1.60;24.10;;;;;;4972086;28;20217;-69
2022/03/03 03:28:51;;;;;;;21.63;19.53;;;-1.50;24.20;;;;;;4957097;28;20178;-71
2022/03/03 03:31:18;;;;;;;27.03;21.67;;;-1.50;24.20;;;;;;4956982;28;20181;-71
2022/03/03 03:33:43;;;;;;;24.25;18.92;;;-1.50;24.20;;;;;;4957028;28;20551;-71
2022/03/03 03:36:09;;;;;;;24.00;21.50;;;-1.50;24.20;;;;;;4957291;29;20178;-71
2022/03/03 03:38:34;;;;;;;23.13;20.63;;;-1.50;23.70;;;;;;4957313;28;20683;-71
2022/03/03 03:41:00;;;;;;;28.70;21.60;;;-1.50;23.60;;;;;;4957255;28;20205;-71
2022/03/03 03:43:26;;;;;;;24.57;22.10;;;-1.50;23.50;;;;;;4957622;28;20206;-73
2022/03/03 03:45:51;;;;;;;23.37;20.57;;;-1.60;23.30;;;;;;4972502;28;20209;-72
2022/03/03 03:48:17;;;;;;;22.17;19.83;;;-1.60;23.30;;;;;;4973901;28;20879;-72
2022/03/03 03:50:43;;;;;;;22.23;20.13;;;-1.70;24.00;;;;;;4960165;28;20635;-72
2022/03/03 03:53:09;;;;;;;22.27;20.17;;;-1.70;23.60;;;;;;4956864;28;20217;-71
2022/03/03 03:55:35;;;;;;;22.00;19.90;;;-1.70;24.10;;;;;;4957874;28;20178;-71
2022/03/03 03:58:00;;;;;;;24.60;22.03;;;-1.80;24.00;;;;;;4956244;28;20716;-71
2022/03/03 04:00:26;;;;;;;21.83;19.53;;;-1.80;24.00;;;;;;4956535;28;20535;-72
2022/03/03 04:02:51;;;;;;;21.37;19.27;;;-1.80;24.00;;;;;;4956470;28;20198;-72
2022/03/03 04:05:17;;;;;;;24.47;21.40;;;-1.80;24.00;;;;;;4958212;28;20241;-71
2022/03/03 04:07:42;;;;;;;24.20;21.80;;;-1.70;24.10;;;;;;4956025;28;20568;-72
2022/03/03 04:10:09;;;;;;;23.20;20.93;;;-1.70;24.10;;;;;;4956486;28;20178;-72
2022/03/03 04:12:34;;;;;;;23.15;20.67;;;-1.60;24.10;;;;;;4955953;28;20608;-71
2022/03/03 04:15:00;;;;;;;22.10;19.97;;;-1.60;24.10;;;;;;4971049;28;20186;-71
2022/03/03 04:17:26;;;;;;;31.07;23.30;;;-1.60;24.10;;;;;;4955780;28;20189;-72
2022/03/03 04:19:51;;;;;;;25.67;22.10;;;-1.70;24.10;;;;;;4956008;28;20190;-72
2022/03/03 04:22:17;;;;;;;22.27;20.03;;;-1.70;24.20;;;;;;4955554;28;20618;-72
2022/03/03 04:24:42;;;;;;;21.63;19.43;;;-1.80;24.00;;;;;;4955939;28;20670;-72
2022/03/03 04:27:08;;;;;;;27.33;20.13;;;-1.90;24.00;;;;;;4956394;28;20178;-72
2022/03/03 04:29:33;;;;;;;20.70;18.80;;;-1.80;24.00;;;;;;4957491;28;20193;-69
2022/03/03 04:31:59;;;;;;;23.20;19.90;;;-1.80;24.00;;;;;;4957351;28;20221;-71
2022/03/03 04:34:25;;;;;;;23.40;20.90;;;-1.80;24.00;;;;;;4973259;28;20537;-69
2022/03/03 04:36:52;;;;;;;24.48;21.33;;;-1.80;24.00;;;;;;4969141;28;20194;-69
2022/03/03 04:39:17;;;;;;;23.10;20.92;;;-1.80;24.00;;;;;;4955765;28;20188;-68
2022/03/03 04:41:43;;;;;;;26.83;19.33;;;-1.70;24.10;;;;;;4955778;28;20281;-69
2022/03/03 04:44:09;;;;;;;23.23;20.90;;;-1.70;24.10;;;;;;4955726;28;20178;-70
2022/03/03 04:46:35;;;;;;;22.65;20.17;;;-1.70;24.10;;;;;;4955245;28;20197;-69
2022/03/03 04:49:01;;;;;;;22.33;20.03;;;-1.70;24.10;;;;;;4955698;28;20186;-70
2022/03/03 04:51:28;;;;;;;21.73;19.45;;;-1.70;24.10;;;;;;4955974;28;20442;-69
2022/03/03 04:53:54;;;;;;;21.75;19.58;;;-1.80;24.00;;;;;;4967192;28;20600;-70
2022/03/03 04:56:19;;;;;;;22.80;19.80;;;-1.70;24.10;;;;;;4964935;28;20270;-68
2022/03/03 04:58:45;;;;;;;20.87;18.70;;;-1.80;24.00;;;;;;4965549;28;20210;-70
2022/03/03 05:01:11;;;;;;;23.17;20.30;;;-1.80;24.00;;;;;;4966052;28;20184;-70
2022/03/03 05:03:37;;;;;;;24.13;21.02;;;-1.90;23.90;;;;;;4963029;28;20225;-70
2022/03/03 05:06:03;;;;;;;21.20;19.17;;;-2.00;24.50;;;;;;4963832;28;20201;-72
2022/03/03 05:08:29;;;;;;;22.17;19.83;;;-1.90;23.90;;;;;;4974913;28;20416;-70
2022/03/03 05:10:54;;;;;;;20.17;18.40;;;-2.00;23.90;;;;;;4972563;28;20448;-70
2022/03/03 05:13:20;;;;;;;23.23;20.80;;;-2.10;24.20;;;;;;4973911;28;20225;-70
2022/03/03 05:15:46;;;;;;;25.63;21.83;;;-2.00;24.20;;;;;;4974308;28;20428;-70
2022/03/03 05:18:12;;;;;;;21.20;18.90;;;-2.10;24.70;;;;;;4974784;28;20181;-70
2022/03/03 05:20:38;;;;;;;22.47;20.03;;;-2.20;25.30;;;;;;4974035;28;20458;-69
2022/03/03 05:23:04;;;;;;;24.35;20.23;;;-2.20;25.40;;;;;;4974040;28;20800;-70
2022/03/03 05:25:30;;;;;;;24.40;19.40;;;-2.30;25.60;;;;;;4974017;28;20197;-70
2022/03/03 05:27:56;;;;;;;22.17;19.80;;;-2.40;26.40;;;;;;4975188;28;20549;-70
2022/03/03 05:30:21;;;;;;;22.17;19.80;;;-2.40;26.60;;;;;;4973879;28;20199;-70
2022/03/03 05:32:49;;;;;;;23.80;19.40;;;-2.30;26.20;;;;;;4973579;28;20817;-69
2022/03/03 05:35:15;;;;;;;25.92;20.23;;;-2.20;26.00;;;;;;4973366;28;20239;-70
2022/03/03 05:37:43;;;;;;;23.65;21.13;;;-2.30;26.80;;;;;;4975272;28;20596;-70
2022/03/03 05:40:09;;;;;;;22.08;19.88;;;-2.40;26.90;;;;;;4973869;28;20185;-72
2022/03/03 05:42:36;;;;;;;24.50;22.17;;;-2.40;27.00;;;;;;4973612;28;20193;-70
2022/03/03 05:45:02;;;;;;;25.23;20.10;;;-2.40;27.10;;;;;;4974287;28;20201;-69
2022/03/03 05:47:29;;;;;;;29.10;22.40;;;-2.40;27.00;;;;;;4973636;28;20634;-70
2022/03/03 05:49:56;;;;;;;23.65;20.67;;;-2.30;27.50;;;;;;4973913;28;20178;-71
2022/03/03 05:52:22;;;;;;;28.90;22.70;;;-2.20;26.60;;;;;;4973789;28;20260;-69
2022/03/03 05:54:47;;;;;;;31.15;24.92;;;-2.20;26.00;;;;;;4988868;28;20325;-69
2022/03/03 05:57:20;;;;;;;23.20;20.83;;;-2.20;25.90;;;;;;4973814;28;20269;-71
2022/03/03 05:59:50;;;;;;;28.75;23.67;;;-2.10;26.20;;;;;;4974918;28;20184;-70
2022/03/03 06:02:20;;;;;;;27.42;22.60;;;-2.00;25.80;;;;;;4973987;28;20193;-71
2022/03/03 06:04:50;;;;;;;27.35;24.05;;;-2.00;25.70;;;;;;4974382;28;20162;-70
2022/03/03 06:07:28;;;;;;;29.27;21.38;;;-1.90;25.70;;;;;;4973024;28;20647;-71
2022/03/03 06:09:57;;;;;;;22.05;19.70;;;-2.00;25.90;;;;;;4973466;28;20697;-69
2022/03/03 06:12:37;;;;;;;25.38;20.63;;;-2.00;25.90;;;;;;4972307;28;20616;-70
2022/03/03 06:15:04;;;;;;;23.67;20.48;;;-1.90;25.80;;;;;;4959160;28;20184;-72
2022/03/03 06:17:31;;;;;;;25.85;21.50;;;-1.90;25.80;;;;;;4973411;28;20177;-70
2022/03/03 06:20:00;;;;;;;26.08;23.20;;;-2.00;25.90;;;;;;4964582;28;20182;-71
2022/03/03 06:22:26;;;;;;;25.63;22.73;;;-1.90;25.80;;;;;;4973708;28;20198;-72
2022/03/03 06:24:51;;;;;;;24.67;22.17;;;-1.90;25.80;;;;;;4988176;28;20296;-74
2022/03/03 06:27:17;;;;;;;20.27;18.17;;;-1.90;25.70;;;;;;4987601;28;20273;-74
2022/03/03 06:29:43;;;;;;;23.83;19.70;;;-1.90;25.90;;;;;;4974342;28;20173;-71
2022/03/03 06:32:09;;;;;;;22.07;19.87;;;-1.80;26.00;;;;;;4972404;28;20268;-69
2022/03/03 06:34:34;;;;;;;21.15;18.50;;;-1.80;25.80;;;;;;4973021;28;20243;-70
2022/03/03 06:37:00;;;;;;;21.70;19.43;;;-1.90;26.00;;;;;;4972457;28;20177;-71
2022/03/03 06:39:26;;;;;;;21.90;19.60;;;-1.90;26.30;;;;;;4974021;28;20416;-71
2022/03/03 06:41:52;;;;;;;26.35;23.52;;;-1.80;26.40;;;;;;4973619;28;20557;-72
2022/03/03 06:44:19;;;;;;;36.93;22.20;;;-1.60;26.90;;;;;;4972820;28;20185;-72
2022/03/03 06:46:45;;;;;;;24.58;22.13;;;-1.40;27.20;;;;;;4974966;28;20468;-70
2022/03/03 06:49:12;;;;;;;27.80;22.67;;;-1.20;26.40;;;;;;4978038;28;20312;-71
2022/03/03 06:51:44;;;;;;;25.13;22.63;;;-1.10;26.00;;;;;;4977519;28;20443;-71
2022/03/03 06:54:18;;;;;;;23.85;20.77;;;-0.90;25.20;;;;;;4970727;28;20181;-69
2022/03/03 06:56:52;;;;;;;24.58;22.13;;;-0.70;24.70;;;;;;4960614;28;20189;-71
2022/03/03 06:59:23;;;;;;;23.77;21.27;;;-0.70;24.70;;;;;;4957563;28;20174;-69
2022/03/03 07:01:49;;;;;;;23.02;20.70;;;-0.60;24.30;;;;;;4970015;28;20210;-73
2022/03/03 07:04:17;;;;;;;23.50;20.58;;;-0.50;24.40;;;;;;4976977;28;20196;-74
2022/03/03 07:06:43;;;;;;;25.88;22.20;;;-0.50;23.90;;;;;;4976901;28;20667;-73
2022/03/03 07:09:10;;;;;;;23.83;21.40;;;-0.40;23.40;;;;;;4971690;28;20200;-73
2022/03/03 07:11:40;;;;;;;25.45;22.70;;;-0.30;23.30;;;;;;4957132;28;20214;-72
2022/03/03 07:14:06;;;;;;;24.15;21.70;;;-0.20;23.10;;;;;;4958673;28;20667;-72
2022/03/03 07:16:49;;;;;;;24.83;21.80;;;-0.10;23.30;;;;;;4958384;28;20225;-70
2022/03/03 07:19:37;;;;;;;24.75;22.48;;;-0.10;23.10;;;;;;4962187;28;20190;-72
2022/03/03 07:22:34;;;;;;;25.88;22.88;;;-0.10;22.80;;;;;;4962156;28;20456;-72
2022/03/03 07:25:11;;;;;;;27.05;24.25;;;0.00;22.80;;;;;;4957237;28;20289;-72
2022/03/03 07:27:44;;;;;;;24.85;22.17;;;0.10;22.70;;;;;;4956277;28;20185;-70
2022/03/03 07:30:15;;;;;;;25.48;23.38;;;0.30;22.50;;;;;;4967179;28;20663;-71
2022/03/03 07:32:55;;;;;;;27.38;24.27;;;0.30;22.50;;;;;;4973926;28;20277;-71
2022/03/03 07:35:25;;;;;;;24.42;22.02;;;0.40;22.20;;;;;;4958149;28;20293;-73
2022/03/03 07:37:59;;;;;;;24.15;21.60;;;0.60;22.10;;;;;;4956555;28;20192;-70
2022/03/03 07:40:30;;;;;;;28.67;24.65;;;0.70;22.30;;;;;;4956258;28;20867;-73
2022/03/03 07:42:57;;;;;;;27.65;25.05;;;0.70;21.50;;;;;;4955210;28;20296;-72
2022/03/03 07:45:23;;;;;;;24.77;22.52;;;0.80;21.60;;;;;;4955599;28;20207;-72
2022/03/03 07:47:50;;;;;;;24.67;22.08;;;0.90;21.50;;;;;;4966170;28;20205;-72
2022/03/03 07:50:18;;;;;;;24.40;21.88;;;1.00;21.00;;;;;;4953882;28;20292;-70
2022/03/03 07:52:44;;;;;;;24.80;22.30;;;1.20;21.10;;;;;;4956413;28;20557;-73
2022/03/03 07:55:10;;;;;;;28.07;25.20;;;1.30;20.90;;;;;;4960444;28;20190;-73
2022/03/03 07:57:40;;;;;;;28.43;25.63;;;1.20;20.10;;;;;;4985757;28;20200;-72
2022/03/03 08:00:09;;;;;;;32.50;23.75;;;1.20;20.90;;;;;;4966602;28;20665;-73
2022/03/03 08:02:38;;;;;;;26.73;23.85;;;1.20;19.80;;;;;;4969562;28;20235;-73
2022/03/03 08:05:05;;;;;;;27.17;24.67;;;1.30;20.40;;;;;;4964810;28;20216;-71
2022/03/03 08:07:38;;;;;;;28.50;25.83;;;1.40;19.20;;;;;;4962923;28;20185;-73
2022/03/03 08:10:06;;;;;;;24.83;22.40;;;1.20;19.10;;;;;;4956366;28;20536;-73
2022/03/03 08:12:32;;;;;;;25.27;22.92;;;1.10;19.70;;;;;;4955959;28;20200;-71
2022/03/03 08:14:59;;;;;;;27.42;24.73;;;1.30;18.90;;;;;;4956122;28;20200;-72
2022/03/03 08:17:25;;;;;;;26.92;23.83;;;1.40;17.80;;;;;;4955886;28;20264;-73
2022/03/03 08:19:54;;;;;;;25.30;22.70;;;1.30;18.20;;;;;;4956217;28;20181;-71
2022/03/03 08:22:24;;;;;;;25.50;23.02;;;1.50;19.80;;;;;;4955852;28;20196;-72
2022/03/03 08:24:53;;;;;;;28.33;24.52;;;1.70;20.00;;;;;;4956011;28;20263;-73
2022/03/03 08:27:20;;;;;;;24.75;21.77;;;1.90;19.00;;;;;;4955743;28;20172;-72
2022/03/03 08:29:46;;;;;;;24.70;21.98;;;1.90;18.20;;;;;;4955965;28;20177;-72
2022/03/03 08:32:16;;;;;;;24.57;22.53;;;2.00;18.20;;;;;;4955414;28;20220;-72
2022/03/03 08:34:53;;;;;;;27.20;24.50;;;2.00;18.20;;;;;;4955846;28;20181;-71
2022/03/03 08:37:49;;;;;;;25.52;23.15;;;2.20;17.90;;;;;;4954469;29;20185;-73
2022/03/03 08:40:19;;;;;;;23.63;21.48;;;2.30;17.70;;;;;;4955706;29;20194;-72
2022/03/03 08:42:48;;;;;;;22.65;20.70;;;2.50;17.80;;;;;;4955371;28;20574;-72
2022/03/03 08:45:18;;;;;;;23.83;21.42;;;2.60;17.30;;;;;;4955572;28;20244;-73
2022/03/03 08:47:48;;;;;;;27.70;24.80;;;2.80;17.50;;;;;;4955528;28;20282;-72
2022/03/03 08:50:14;;;;;;;25.73;23.10;;;2.90;17.50;;;;;;4955586;28;20177;-73
2022/03/03 08:52:42;;;;;;;22.63;20.58;;;3.10;17.40;;;;;;4955081;28;20740;-73
2022/03/03 08:55:10;;;;;;;30.58;22.02;;;3.30;16.70;;;;;;4953859;28;20200;-73
2022/03/03 08:57:36;;;;;;;27.38;24.50;;;3.40;16.40;;;;;;4956740;28;20212;-73
2022/03/03 09:00:04;;;;;;;24.60;22.10;;;3.50;16.30;;;;;;4955580;28;20201;-72
2022/03/03 09:02:30;;;;;;;27.30;23.02;;;3.60;16.40;;;;;;4955064;28;20486;-73
2022/03/03 09:04:55;;;;;;;25.17;22.83;;;3.70;15.90;;;;;;4969977;28;20217;-73
2022/03/03 09:07:21;;;;;;;24.23;21.77;;;3.80;15.80;;;;;;4955098;28;20254;-73
2022/03/03 09:09:46;;;;;;;26.43;24.03;;;3.90;16.40;;;;;;4954165;28;20257;-73
2022/03/03 09:12:13;;;;;;;25.43;23.13;;;4.00;15.40;;;;;;4955046;28;20196;-73
2022/03/03 09:14:39;;;;;;;23.70;21.40;;;4.10;15.30;;;;;;4955133;28;20198;-73
2022/03/03 09:17:04;;;;;;;26.17;23.30;;;4.20;14.60;;;;;;4954841;28;20261;-72
2022/03/03 09:19:30;;;;;;;25.30;23.13;;;4.20;15.40;;;;;;4954957;28;20554;-72
2022/03/03 09:21:56;;;;;;;24.23;22.10;;;4.40;15.50;;;;;;4954863;28;20194;-72
2022/03/03 09:24:23;;;;;;;24.70;22.43;;;4.50;15.60;;;;;;4954804;28;20343;-71
2022/03/03 09:26:50;;;;;;;26.95;24.40;;;4.50;14.50;;;;;;4954695;28;20645;-71
2022/03/03 09:29:17;;;;;;;25.33;22.98;;;4.70;13.90;;;;;;4954820;28;20174;-72
2022/03/03 09:31:44;;;;;;;24.10;21.98;;;4.70;13.80;;;;;;4953077;28;20222;-71
2022/03/03 09:34:09;;;;;;;24.23;21.75;;;4.80;13.20;;;;;;4954778;29;20183;-72
2022/03/03 09:36:35;;;;;;;26.00;23.50;;;4.90;13.30;;;;;;4954473;28;20174;-71
2022/03/03 09:39:01;;;;;;;25.00;22.77;;;5.00;13.60;;;;;;4969293;28;20253;-72
2022/03/03 09:41:26;;;;;;;26.27;24.00;;;5.20;12.90;;;;;;4954227;28;20544;-72
2022/03/03 09:43:52;;;;;;;26.23;23.93;;;5.30;13.50;;;;;;4954693;28;20192;-72
2022/03/03 09:46:21;;;;;;;24.63;22.20;;;5.40;13.30;;;;;;4954347;28;20211;-71
2022/03/03 09:48:47;;;;;;;25.63;23.58;;;5.50;13.30;;;;;;4954487;28;20172;-72
2022/03/03 09:51:13;;;;;;;28.10;25.60;;;5.40;11.90;;;;;;4954240;28;20229;-72
2022/03/03 09:53:40;;;;;;;27.95;23.27;;;5.60;12.70;;;;;;4954268;28;20648;-72
2022/03/03 09:56:05;;;;;;;25.23;22.87;;;5.70;13.40;;;;;;4954359;28;20203;-70
2022/03/03 09:58:32;;;;;;;26.42;24.13;;;5.90;13.10;;;;;;4954225;28;20460;-72
2022/03/03 10:00:58;;;;;;;24.77;22.37;;;6.00;12.30;;;;;;4954161;28;20735;-71
2022/03/03 10:03:30;;;;;;;24.53;22.73;;;6.10;12.30;;;;;;4954451;28;20204;-72
2022/03/03 10:05:59;;;;;;;27.97;25.37;;;6.20;11.90;;;;;;4954115;28;20206;-72
2022/03/03 10:08:25;;;;;;;28.17;25.50;;;6.40;11.60;;;;;;4954009;28;20851;-72
2022/03/03 10:11:01;;;;;;;26.90;24.27;;;6.40;9.20;;;;;;4952715;29;20499;-72
2022/03/03 10:13:28;;;;;;;25.53;23.40;;;6.30;9.80;;;;;;4954451;28;20799;-73
2022/03/03 10:15:57;;;;;;;24.63;22.63;;;6.40;9.90;;;;;;4954281;28;20456;-74
2022/03/03 10:18:23;;;;;;;25.93;23.67;;;6.50;9.50;;;;;;4952321;28;20457;-71
2022/03/03 10:20:58;;;;;;;26.17;24.27;;;6.50;9.70;;;;;;4953724;28;20923;-72
2022/03/03 10:23:33;;;;;;;22.70;20.90;;;6.40;8.20;;;;;;4952821;28;20815;-73
2022/03/03 10:26:00;;;;;;;23.37;21.27;;;6.50;8.60;;;;;;4953887;28;20456;-72
2022/03/03 10:28:37;;;;;;;25.27;23.10;;;6.70;8.90;;;;;;4952429;28;20420;-72
2022/03/03 10:31:02;;;;;;;22.87;20.63;;;6.80;8.40;;;;;;4953606;28;20411;-71
2022/03/03 10:33:34;;;;;;;24.37;22.43;;;6.80;8.40;;;;;;4952819;28;20549;-70
2022/03/03 10:36:21;;;;;;;24.03;21.93;;;6.80;8.40;;;;;;4972794;28;20251;-70
2022/03/03 10:39:00;;;;;;;23.10;20.90;;;7.00;7.60;;;;;;4953708;28;20425;-71
2022/03/03 10:41:43;;;;;;;24.37;22.40;;;7.10;6.40;;;;;;4953528;28;20421;-72
2022/03/03 10:44:14;;;;;;;22.70;20.73;;;7.10;6.40;;;;;;4952600;28;21093;-72
2022/03/03 10:47:09;;;;;;;24.60;22.53;;;7.20;6.70;;;;;;4953533;28;20468;-71
2022/03/03 10:49:37;;;;;;;25.03;22.93;;;7.20;6.00;;;;;;4953707;28;20414;-72
2022/03/03 10:52:16;;;;;;;24.70;22.50;;;7.20;6.20;;;;;;4953346;28;20426;-72
2022/03/03 10:54:48;;;;;;;24.17;21.80;;;7.30;5.50;;;;;;4952402;28;20425;-72
2022/03/03 10:57:29;;;;;;;25.27;23.27;;;7.50;6.00;;;;;;4953546;28;20405;-72
2022/03/03 10:59:57;;;;;;;24.87;22.50;;;7.60;6.00;;;;;;4954075;28;20774;-71
2022/03/03 11:02:24;;;;;;;23.50;21.60;;;7.70;5.20;;;;;;4953397;28;20441;-70
2022/03/03 11:04:50;;;;;;;25.63;23.23;;;7.70;5.80;;;;;;4953751;28;20504;-71
2022/03/03 11:07:18;;;;;;;25.40;22.90;;;7.70;5.50;;;;;;4953445;28;20441;-72
2022/03/03 11:09:43;;;;;;;25.00;23.17;;;7.90;5.80;;;;;;4952358;29;20178;-72
2022/03/03 11:12:09;;;;;;;27.37;25.00;;;8.00;5.20;;;;;;4953366;28;20439;-70
2022/03/03 11:14:36;;;;;;;26.10;24.00;;;7.90;5.60;;;;;;4953459;28;20178;-71
2022/03/03 11:17:03;;;;;;;26.67;24.60;;;8.10;5.40;;;;;;4952292;28;20979;-69
2022/03/03 11:19:29;;;;;;;24.60;22.30;;;8.20;4.80;;;;;;4953552;28;20414;-71
2022/03/03 11:21:55;;;;;;;24.70;22.43;;;8.00;4.90;;;;;;4952003;28;20973;-70
2022/03/03 11:24:22;;;;;;;25.17;23.17;;;8.10;4.70;;;;;;4952418;28;20521;-71
2022/03/03 11:26:48;;;;;;;22.23;20.37;;;8.40;5.00;;;;;;4953372;28;20554;-71
2022/03/03 11:29:15;;;;;;;24.33;22.37;;;8.50;5.50;;;;;;4953409;28;20410;-71
2022/03/03 11:31:43;;;;;;;25.73;23.60;;;8.70;5.10;;;;;;4953386;28;20490;-71
2022/03/03 11:34:25;;;;;;;28.03;25.10;;;8.80;4.20;;;;;;4955995;29;20422;-71
2022/03/03 11:37:06;;;;;;;25.57;22.97;;;8.80;4.40;;;;;;4957381;28;20508;-70
2022/03/03 11:39:37;;;;;;;23.77;21.83;;;9.00;3.80;;;;;;4957265;28;20454;-72
2022/03/03 11:42:15;;;;;;;24.33;22.23;;;8.60;4.30;;;;;;4956792;28;20488;-71
2022/03/03 11:44:41;;;;;;;27.17;24.80;;;8.80;4.70;;;;;;4957038;28;20410;-71
2022/03/03 11:47:37;;;;;;;26.07;23.70;;;8.70;5.00;;;;;;4956620;28;20437;-70
2022/03/03 11:50:12;;;;;;;25.60;23.27;;;8.70;5.10;;;;;;4960174;28;20198;-71
2022/03/03 11:52:39;;;;;;;26.03;23.63;;;8.80;5.20;;;;;;4954456;28;20531;-71
2022/03/03 11:55:28;;;;;;;24.93;23.03;;;9.00;5.30;;;;;;4956825;28;20433;-70
2022/03/03 11:58:01;;;;;;;24.10;21.97;;;9.10;5.30;;;;;;4956505;28;20420;-73
2022/03/03 12:00:27;;;;;;;26.10;24.07;;;9.30;4.10;;;;;;4956667;28;20417;-70
2022/03/03 12:03:03;;;;;;;24.93;22.80;;;9.20;3.50;;;;;;4956797;28;20443;-68
2022/03/03 12:05:36;;;;;;;24.20;22.30;;;9.40;3.60;;;;;;4956214;28;20951;-69
2022/03/03 12:08:12;;;;;;;26.87;24.67;;;9.60;3.90;;;;;;4955541;28;20436;-68
2022/03/03 12:10:56;;;;;;;25.80;23.80;;;9.70;2.80;;;;;;4956068;28;20460;-70
2022/03/03 12:13:26;;;;;;;24.50;22.40;;;9.90;2.90;;;;;;4956501;28;20435;-70
2022/03/03 12:16:11;;;;;;;26.27;24.00;;;9.70;2.50;;;;;;4956365;28;20427;-69
2022/03/03 12:18:37;;;;;;;23.90;21.50;;;9.90;2.90;;;;;;4956226;28;20424;-70
2022/03/03 12:21:27;;;;;;;24.60;22.30;;;10.10;2.50;;;;;;4955346;28;20423;-68
2022/03/03 12:24:15;;;;;;;25.40;23.30;;;10.20;1.30;;;;;;4956899;28;20188;-67
2022/03/03 12:26:55;;;;;;;24.23;21.77;;;10.30;1.10;;;;;;4956376;28;20875;-67
2022/03/03 12:29:49;;;;;;;26.67;23.90;;;10.40;1.30;;;;;;4955050;28;20425;-67
2022/03/03 12:32:35;;;;;;;22.23;20.83;;;10.50;1.00;;;;;;4955755;29;20473;-67
2022/03/03 12:35:05;;;;;;;24.20;21.77;;;10.60;1.40;;;;;;4956051;28;20428;-68
2022/03/03 12:37:32;;;;;;;24.40;22.23;;;10.60;1.50;;;;;;4954359;28;20480;-68
2022/03/03 12:40:00;;;;;;;23.83;21.77;;;10.40;1.00;;;;;;4961768;28;20434;-69
2022/03/03 12:42:29;;;;;;;26.77;22.53;;;10.60;1.50;;;;;;4956069;28;20451;-68